Time;durP1;ratioP1;P1;durP2;ratioP2;P2;SDS_P1;SDS_P2;PMS_P1;PMS_P2;Temp;Humidity;BMP_temperature;BMP_pressure;BME280_temperature;BME280_humidity;BME280_pressure;Samples;Min_cycle;Max_cycle;Signal;HPM_P1;HPM_P2
2022/01/16 00:01:18;;;;;;;22.07;13.53;;;;;;;2.34;84.31;96289.72;5034869;28;20218;-83
2022/01/16 00:06:28;;;;;;;19.63;12.57;;;;;;;2.23;85.27;96276.97;5035671;28;20240;-83
2022/01/16 00:08:56;;;;;;;36.43;13.33;;;;;;;2.04;85.77;96250.34;5035822;28;20202;-83
2022/01/16 00:11:24;;;;;;;20.53;12.70;;;;;;;1.90;87.59;96270.81;5034339;28;20229;-84
2022/01/16 00:13:50;;;;;;;48.37;14.20;;;;;;;1.90;87.20;96286.03;5035429;28;20669;-84
2022/01/16 00:16:17;;;;;;;17.60;12.03;;;;;;;1.96;86.87;96267.81;5035585;28;20604;-83
2022/01/16 00:18:49;;;;;;;19.57;12.70;;;;;;;2.07;86.72;96278.06;5035846;28;20201;-83
2022/01/16 00:21:18;;;;;;;22.37;12.87;;;;;;;2.12;86.28;96265.00;5034649;28;20234;-82
2022/01/16 00:23:45;;;;;;;42.73;13.87;;;;;;;2.05;85.94;96264.66;5034972;28;20210;-83
2022/01/16 00:26:13;;;;;;;19.97;12.50;;;;;;;1.92;87.84;96263.91;5035711;28;20739;-83
2022/01/16 00:28:39;;;;;;;19.20;12.20;;;;;;;2.06;87.53;96224.84;5034845;28;20655;-83
2022/01/16 00:31:06;;;;;;;20.33;12.30;;;;;;;2.19;86.63;96227.31;5015477;28;20238;-83
2022/01/16 00:33:32;;;;;;;22.07;12.67;;;;;;;2.22;85.68;96243.16;5029041;28;20218;-83
2022/01/16 00:35:59;;;;;;;22.30;13.23;;;;;;;2.27;85.20;96263.16;5035851;28;20209;-83
2022/01/16 00:38:25;;;;;;;20.80;12.87;;;;;;;2.21;85.75;96258.50;5035210;28;20305;-83
2022/01/16 00:40:52;;;;;;;23.13;13.40;;;;;;;2.16;85.32;96248.66;5034919;28;20242;-82
2022/01/16 00:43:19;;;;;;;20.83;12.87;;;;;;;2.21;85.01;96255.94;5034208;28;20187;-83
2022/01/16 00:45:46;;;;;;;21.13;13.60;;;;;;;2.21;84.79;96266.09;5035323;28;20214;-83
2022/01/16 00:48:13;;;;;;;51.57;20.40;;;;;;;2.21;94.02;96261.03;5034182;28;20237;-83
2022/01/16 00:50:39;;;;;;;28.13;16.23;;;;;;;2.23;90.86;96231.25;5034364;28;20733;-83
2022/01/16 00:53:06;;;;;;;28.10;13.50;;;;;;;2.25;85.96;96235.31;5033937;28;20222;-83
2022/01/16 00:55:33;;;;;;;24.03;14.53;;;;;;;2.17;86.20;96236.75;5033456;28;20205;-83
2022/01/16 00:58:00;;;;;;;22.87;13.63;;;;;;;2.24;86.41;96243.03;5034627;28;20222;-83
2022/01/16 01:00:31;;;;;;;23.13;13.57;;;;;;;2.29;85.58;96243.53;5033885;28;20230;-83
2022/01/16 01:02:57;;;;;;;21.10;13.17;;;;;;;2.35;84.91;96246.41;5021428;28;20202;-82
2022/01/16 01:05:24;;;;;;;19.67;12.87;;;;;;;2.39;84.47;96245.28;5034194;28;20832;-81
2022/01/16 01:07:50;;;;;;;22.63;12.80;;;;;;;2.48;84.18;96281.13;5034446;28;20702;-82
2022/01/16 01:10:18;;;;;;;21.80;13.00;;;;;;;2.48;83.74;96292.13;5033341;28;20612;-82
2022/01/16 01:12:53;;;;;;;22.20;13.53;;;;;;;2.50;83.62;96267.41;5033583;28;20206;-80
2022/01/16 01:15:25;;;;;;;21.03;12.80;;;;;;;2.35;83.44;96281.19;5034256;28;20202;-83
2022/01/16 01:17:54;;;;;;;21.93;13.17;;;;;;;2.31;84.34;96237.38;5034105;28;20229;-83
2022/01/16 01:20:22;;;;;;;22.50;13.27;;;;;;;2.21;84.70;96197.53;5033848;28;20614;-82
2022/01/16 01:22:52;;;;;;;19.87;12.57;;;;;;;2.17;84.83;96191.03;5033583;28;20198;-82
2022/01/16 01:25:19;;;;;;;19.27;12.60;;;;;;;2.26;84.45;96191.19;5032407;28;20244;-82
2022/01/16 01:27:46;;;;;;;16.60;11.37;;;;;;;2.28;83.54;96186.00;5027954;28;20222;-83
2022/01/16 01:30:15;;;;;;;18.63;12.03;;;;;;;2.29;83.32;96180.00;5033209;28;20241;-83
2022/01/16 01:32:43;;;;;;;18.93;12.57;;;;;;;2.29;83.56;96207.97;5033616;28;20194;-82
2022/01/16 01:35:14;;;;;;;20.07;12.20;;;;;;;2.27;83.17;96220.78;5033713;28;20629;-82
2022/01/16 01:37:41;;;;;;;18.33;11.87;;;;;;;2.29;83.32;96246.06;5033642;28;20226;-82
2022/01/16 01:40:11;;;;;;;16.67;11.23;;;;;;;2.27;82.82;96252.97;5033147;28;20230;-83
2022/01/16 01:42:44;;;;;;;13.67;10.07;;;;;;;2.26;82.39;96236.94;5033528;28;20216;-83
2022/01/16 01:51:04;;;;;;;14.00;9.90;;;;;;;2.25;81.89;96244.66;5033204;28;20233;-82
2022/01/16 01:53:30;;;;;;;13.40;10.03;;;;;;;2.26;82.02;96226.75;5033344;28;20221;-82
2022/01/16 01:55:56;;;;;;;12.43;9.07;;;;;;;2.27;81.43;96235.19;5033087;28;20237;-82
2022/01/16 01:58:23;;;;;;;15.20;9.80;;;;;;;2.24;81.96;96248.13;5033811;28;20218;-83
2022/01/16 02:00:50;;;;;;;12.27;9.50;;;;;;;2.24;81.98;96254.00;5032385;28;20237;-83
2022/01/16 02:03:22;;;;;;;14.27;9.93;;;;;;;2.24;82.00;96248.94;5032659;28;20703;-83
2022/01/16 02:05:50;;;;;;;14.37;10.17;;;;;;;2.19;82.25;96258.59;5032374;28;20338;-83
2022/01/16 02:08:17;;;;;;;14.53;9.87;;;;;;;2.20;82.47;96267.84;5033535;28;20230;-83
2022/01/16 02:10:44;;;;;;;14.17;9.83;;;;;;;2.13;82.81;96269.19;5032559;28;20225;-83
2022/01/16 02:13:20;;;;;;;15.80;10.53;;;;;;;2.17;82.82;96282.47;5033260;28;20210;-83
2022/01/16 02:30:17;;;;;;;17.30;10.87;;;;;;;1.90;85.37;96247.16;5032091;28;20357;-84
2022/01/16 02:35:21;;;;;;;17.40;10.83;;;;;;;1.86;86.24;96243.19;5015019;28;20236;-81
2022/01/16 02:37:47;;;;;;;28.17;11.90;;;;;;;1.82;86.02;96237.50;5032999;28;20239;-83
2022/01/16 02:40:24;;;;;;;19.07;11.23;;;;;;;1.81;86.86;96228.28;5032055;28;20225;-83
2022/01/16 02:42:52;;;;;;;22.37;11.53;;;;;;;1.78;87.14;96225.13;5032321;28;20600;-83
2022/01/16 02:45:29;;;;;;;19.47;11.90;;;;;;;1.83;87.10;96226.44;5031635;28;20692;-83
2022/01/16 02:47:57;;;;;;;19.83;11.90;;;;;;;1.90;86.56;96225.09;5032239;28;20230;-83
2022/01/16 02:50:24;;;;;;;30.03;11.57;;;;;;;1.93;86.68;96217.25;5031866;28;20233;-83
2022/01/16 02:52:51;;;;;;;20.40;11.23;;;;;;;2.01;86.14;96214.19;5031920;28;20202;-82
2022/01/16 02:55:21;;;;;;;18.73;11.40;;;;;;;2.02;86.20;96209.00;5032213;28;20222;-82
2022/01/16 02:57:48;;;;;;;20.20;11.80;;;;;;;2.07;86.20;96209.50;5032048;28;20288;-83
2022/01/16 03:00:15;;;;;;;18.60;11.63;;;;;;;2.13;85.84;96202.31;5031585;28;20718;-83
2022/01/16 03:02:41;;;;;;;19.97;12.30;;;;;;;2.17;85.30;96199.47;5032170;28;20233;-83
2022/01/16 03:05:09;;;;;;;17.80;11.57;;;;;;;2.23;84.98;96200.75;5013203;28;20221;-83
2022/01/16 03:07:36;;;;;;;19.13;11.63;;;;;;;2.16;84.72;96202.13;5026113;28;20245;-83
2022/01/16 03:10:20;;;;;;;17.87;11.90;;;;;;;2.16;85.18;96205.47;5031724;28;20237;-83
2022/01/16 03:12:49;;;;;;;21.33;11.90;;;;;;;2.19;84.87;96196.81;5031759;28;20206;-83
2022/01/16 03:15:17;;;;;;;18.87;12.07;;;;;;;2.22;85.01;96188.97;5032111;28;20305;-83
2022/01/16 03:21:53;;;;;;;16.97;11.23;;;;;;;2.24;84.84;96187.97;5031980;28;20622;-83
2022/01/16 03:23:24;;;;;;;18.90;11.57;;;;;;;2.22;84.71;96187.25;5031894;28;20213;-83
2022/01/16 03:25:51;;;;;;;21.40;12.07;;;;;;;2.24;84.12;96174.44;5032464;28;20225;-83
2022/01/16 03:28:20;;;;;;;17.40;10.87;;;;;;;2.28;83.68;96184.28;5031873;28;20720;-83
2022/01/16 03:30:47;;;;;;;17.07;10.87;;;;;;;2.28;83.90;96176.66;5031330;28;20233;-82
2022/01/16 03:33:14;;;;;;;17.50;11.27;;;;;;;2.28;83.77;96176.66;5032129;28;20197;-83
2022/01/16 03:35:41;;;;;;;22.60;11.20;;;;;;;2.30;84.17;96171.47;5031693;28;20214;-83
2022/01/16 03:38:08;;;;;;;18.43;11.73;;;;;;;2.32;83.92;96178.03;5031448;28;20596;-83
2022/01/16 03:40:34;;;;;;;16.77;11.57;;;;;;;2.32;83.26;96169.59;5030926;28;20233;-84
2022/01/16 03:43:05;;;;;;;16.90;11.30;;;;;;;2.29;84.05;96174.94;5031447;28;20197;-83
2022/01/16 03:45:33;;;;;;;25.80;12.27;;;;;;;2.30;83.74;96162.13;5031512;28;20208;-84
2022/01/16 03:47:59;;;;;;;18.43;11.67;;;;;;;2.28;83.93;96161.41;5029193;28;20225;-81
2022/01/16 03:50:26;;;;;;;18.20;11.20;;;;;;;2.30;83.61;96154.50;5031101;28;20740;-83
2022/01/16 03:52:53;;;;;;;16.87;11.53;;;;;;;2.31;83.31;96166.25;5031452;28;20208;-83
2022/01/16 03:55:21;;;;;;;18.67;11.00;;;;;;;2.34;83.25;96155.88;5031588;28;20291;-84
2022/01/16 03:57:48;;;;;;;19.27;12.43;;;;;;;2.34;83.52;96152.50;5031288;28;20217;-84
2022/01/16 04:00:15;;;;;;;17.87;11.60;;;;;;;2.32;83.65;96157.72;5031577;28;20237;-83
2022/01/16 04:02:43;;;;;;;17.63;11.80;;;;;;;2.32;83.96;96170.41;5031113;28;20194;-83
2022/01/16 04:05:09;;;;;;;20.70;13.07;;;;;;;2.34;83.76;96172.84;5031418;28;20202;-83
2022/01/16 04:07:36;;;;;;;19.67;12.03;;;;;;;2.31;83.83;96180.72;5030986;28;20222;-83
2022/01/16 04:10:05;;;;;;;17.67;11.83;;;;;;;2.33;83.67;96194.91;5031053;28;20246;-82
2022/01/16 04:12:33;;;;;;;16.87;12.50;;;;;;;2.38;83.56;96190.31;5031106;28;20631;-82
2022/01/16 04:17:45;;;;;;;18.43;11.87;;;;;;;2.41;83.79;96187.53;5030397;28;20232;-82
2022/01/16 04:20:16;;;;;;;18.33;12.00;;;;;;;2.45;83.13;96192.41;5030331;28;20230;-81
2022/01/16 04:22:42;;;;;;;19.43;12.53;;;;;;;2.41;83.34;96191.81;5031002;28;20209;-83
2022/01/16 04:25:09;;;;;;;17.33;11.77;;;;;;;2.42;83.15;96194.25;5030334;28;20564;-83
2022/01/16 04:27:35;;;;;;;20.27;13.00;;;;;;;2.33;83.80;96194.91;5031391;28;20625;-83
2022/01/16 04:30:02;;;;;;;18.03;12.23;;;;;;;2.29;84.05;96197.78;5033314;28;20238;-82
2022/01/16 04:32:28;;;;;;;19.07;12.13;;;;;;;2.31;83.54;96195.97;5034737;28;20198;-82
2022/01/16 04:34:56;;;;;;;19.17;12.70;;;;;;;2.23;84.19;96196.50;5034516;28;20222;-83
2022/01/16 04:37:23;;;;;;;18.97;12.50;;;;;;;2.21;83.92;96194.97;5034818;28;20226;-84
2022/01/16 04:39:51;;;;;;;19.87;13.27;;;;;;;2.16;84.24;96195.31;5034059;28;20250;-84
2022/01/16 04:45:03;;;;;;;17.40;12.20;;;;;;;1.82;84.46;96189.28;5034820;28;20201;-83
2022/01/16 04:47:29;;;;;;;19.37;12.87;;;;;;;1.71;85.28;96192.59;5034582;28;20261;-84
2022/01/16 04:49:57;;;;;;;17.17;12.83;;;;;;;1.80;85.12;96190.31;5033891;28;20612;-83
2022/01/16 04:52:24;;;;;;;19.17;12.53;;;;;;;1.80;84.90;96200.47;5034274;28;20206;-83
2022/01/16 04:54:50;;;;;;;17.17;12.77;;;;;;;1.75;84.71;96195.69;5034821;28;20222;-83
2022/01/16 04:57:17;;;;;;;17.67;12.63;;;;;;;1.74;85.20;96194.88;5035161;28;20364;-84
2022/01/16 04:59:43;;;;;;;16.50;12.30;;;;;;;1.65;85.52;96198.06;5034239;28;20605;-84
2022/01/16 05:02:09;;;;;;;17.77;12.57;;;;;;;1.67;85.59;96193.72;5034394;28;20209;-84
2022/01/16 05:04:36;;;;;;;20.97;13.03;;;;;;;1.71;85.39;96190.03;5033713;28;20198;-84
2022/01/16 05:07:04;;;;;;;17.87;13.37;;;;;;;1.62;86.17;96203.38;5034628;28;20717;-82
2022/01/16 05:09:31;;;;;;;18.70;14.10;;;;;;;1.68;86.18;96202.13;5033693;28;20279;-82
2022/01/16 05:12:01;;;;;;;16.90;13.13;;;;;;;1.69;85.80;96207.09;5034109;28;20206;-82
2022/01/16 05:17:11;;;;;;;19.20;14.00;;;;;;;1.79;85.07;96206.44;5035849;28;20225;-83
2022/01/16 05:19:38;;;;;;;17.07;13.93;;;;;;;1.77;84.71;96205.75;5035895;28;20237;-84
2022/01/16 05:22:06;;;;;;;19.07;14.57;;;;;;;1.78;84.72;96203.09;5034858;28;20569;-82
2022/01/16 05:24:34;;;;;;;17.60;14.20;;;;;;;1.73;84.10;96205.94;5035245;28;20256;-82
2022/01/16 05:27:01;;;;;;;19.60;14.80;;;;;;;1.82;84.03;96201.16;5034839;28;20253;-83
2022/01/16 05:29:27;;;;;;;17.47;13.80;;;;;;;1.79;84.03;96199.66;5035474;28;20198;-83
2022/01/16 05:31:54;;;;;;;18.70;13.93;;;;;;;1.82;84.03;96199.44;5035426;28;20199;-83
2022/01/16 05:34:23;;;;;;;19.23;14.93;;;;;;;1.89;83.99;96212.53;5036426;28;20225;-83
2022/01/16 05:36:50;;;;;;;18.53;14.47;;;;;;;1.87;83.04;96206.72;5035819;28;20218;-83
2022/01/16 05:39:18;;;;;;;17.13;13.90;;;;;;;1.89;82.72;96208.25;5034655;28;20610;-83
2022/01/16 05:41:45;;;;;;;17.87;14.33;;;;;;;1.94;82.79;96221.41;5035048;28;20870;-83
2022/01/16 05:44:11;;;;;;;16.00;13.00;;;;;;;1.77;82.69;96216.72;5035655;28;20221;-83
2022/01/16 05:46:37;;;;;;;17.60;14.60;;;;;;;1.63;82.95;96217.69;5035726;28;20217;-83
2022/01/16 05:49:04;;;;;;;17.70;14.20;;;;;;;1.68;83.05;96228.31;5036177;28;20202;-83
2022/01/16 05:51:31;;;;;;;18.03;14.67;;;;;;;1.52;82.80;96220.16;5033870;28;20233;-83
2022/01/16 05:53:57;;;;;;;17.83;14.70;;;;;;;1.65;82.84;96230.25;5036127;28;20263;-82
2022/01/16 05:56:25;;;;;;;19.03;14.13;;;;;;;1.62;83.00;96235.53;5035407;28;20775;-83
2022/01/16 05:58:52;;;;;;;17.93;14.17;;;;;;;1.68;82.40;96235.94;5035286;28;20202;-83
2022/01/16 06:01:18;;;;;;;17.77;14.03;;;;;;;1.69;82.23;96234.22;5034926;28;20232;-83
2022/01/16 06:03:45;;;;;;;17.63;14.63;;;;;;;1.66;81.84;96237.78;5034895;28;20209;-82
2022/01/16 06:06:11;;;;;;;18.40;15.20;;;;;;;1.64;82.11;96242.13;5035352;28;20202;-83
2022/01/16 06:08:38;;;;;;;17.70;14.80;;;;;;;1.61;82.12;96228.84;5034992;28;20284;-82
2022/01/16 06:11:04;;;;;;;18.00;14.67;;;;;;;1.57;82.35;96237.56;5034165;28;20344;-82
2022/01/16 06:13:32;;;;;;;18.23;14.73;;;;;;;1.55;82.21;96245.28;5034820;28;20224;-82
2022/01/16 06:15:59;;;;;;;19.33;14.70;;;;;;;1.62;82.00;96253.31;5034418;28;20214;-82
2022/01/16 06:18:25;;;;;;;18.20;14.40;;;;;;;1.53;81.80;96244.63;5036177;28;20330;-82
2022/01/16 06:20:52;;;;;;;19.17;15.20;;;;;;;1.56;81.95;96244.38;5035433;28;20233;-83
2022/01/16 06:23:19;;;;;;;19.33;15.20;;;;;;;1.64;82.03;96247.22;5036911;28;20225;-83
2022/01/16 06:25:45;;;;;;;18.53;14.83;;;;;;;1.66;81.44;96250.47;5034146;28;20197;-82
2022/01/16 06:28:12;;;;;;;20.17;15.40;;;;;;;1.73;81.61;96253.41;5033730;28;20843;-83
2022/01/16 06:30:39;;;;;;;17.53;14.73;;;;;;;1.77;80.85;96261.59;5034856;28;20230;-83
2022/01/16 06:33:06;;;;;;;19.80;15.77;;;;;;;1.76;80.79;96265.84;5035362;28;20190;-81
2022/01/16 06:35:33;;;;;;;19.43;15.23;;;;;;;1.72;81.02;96257.66;5034733;28;20214;-83
2022/01/16 06:37:59;;;;;;;17.97;14.90;;;;;;;1.66;80.70;96262.34;5033903;28;20689;-83
2022/01/16 06:40:27;;;;;;;19.83;16.67;;;;;;;1.71;81.22;96260.31;5034613;28;20788;-83
2022/01/16 06:42:53;;;;;;;20.27;15.73;;;;;;;1.71;80.65;96253.50;5034667;28;21041;-83
2022/01/16 06:45:20;;;;;;;18.97;15.87;;;;;;;1.70;80.85;96253.59;5034468;28;20194;-82
2022/01/16 06:47:48;;;;;;;19.07;15.87;;;;;;;1.70;81.23;96249.34;5034564;28;20229;-82
2022/01/16 06:50:14;;;;;;;20.83;16.40;;;;;;;1.66;81.36;96250.47;5034363;28;20230;-83
2022/01/16 06:52:41;;;;;;;18.93;16.00;;;;;;;1.65;81.37;96266.59;5034039;28;20194;-82
2022/01/16 06:55:08;;;;;;;19.07;15.83;;;;;;;1.49;81.51;96260.16;5035359;28;20222;-83
2022/01/16 06:57:35;;;;;;;18.53;15.77;;;;;;;1.51;81.87;96260.84;5034690;28;20226;-82
2022/01/16 07:00:01;;;;;;;22.83;17.30;;;;;;;1.52;81.44;96265.81;5033822;28;20839;-82
2022/01/16 07:02:28;;;;;;;22.43;17.37;;;;;;;1.58;81.30;96269.66;5034586;28;20200;-84
2022/01/16 07:04:56;;;;;;;21.93;17.37;;;;;;;1.59;81.21;96281.44;5032774;28;20935;-81
2022/01/16 07:07:25;;;;;;;21.37;17.37;;;;;;;1.56;81.18;96287.53;5032048;28;20222;-83
2022/01/16 07:09:51;;;;;;;20.10;15.90;;;;;;;1.59;81.08;96276.34;5033204;28;20233;-82
2022/01/16 07:12:18;;;;;;;22.50;16.70;;;;;;;1.55;81.03;96282.53;5033123;28;20195;-82
2022/01/16 07:14:44;;;;;;;20.27;17.37;;;;;;;1.57;80.95;96279.00;5032922;28;20202;-82
2022/01/16 07:17:11;;;;;;;21.57;16.20;;;;;;;1.60;80.42;96272.91;5033527;28;20222;-82
2022/01/16 07:19:37;;;;;;;20.40;16.27;;;;;;;1.68;80.54;96275.75;5032647;28;20593;-82
2022/01/16 07:22:06;;;;;;;20.37;16.40;;;;;;;1.70;79.97;96274.72;5033049;28;20623;-82
2022/01/16 07:24:32;;;;;;;20.80;16.53;;;;;;;1.66;79.74;96265.69;5032192;28;20202;-82
2022/01/16 07:27:00;;;;;;;19.10;15.77;;;;;;;1.72;79.94;96277.97;5033408;28;20218;-82
2022/01/16 07:29:27;;;;;;;21.20;16.87;;;;;;;1.76;79.17;96283.63;5033378;28;20256;-81
2022/01/16 07:31:53;;;;;;;21.33;16.40;;;;;;;1.78;79.44;96278.44;5032539;28;20696;-81
2022/01/16 07:34:20;;;;;;;21.30;16.50;;;;;;;1.77;79.69;96281.91;5032693;28;20218;-83
2022/01/16 07:36:46;;;;;;;18.93;15.60;;;;;;;1.83;79.30;96284.84;5032463;28;20226;-82
2022/01/16 07:39:14;;;;;;;20.97;16.53;;;;;;;1.93;78.87;96295.97;5031282;28;20193;-82
2022/01/16 07:41:40;;;;;;;19.20;15.03;;;;;;;2.13;78.52;96297.13;5031570;28;20641;-82
2022/01/16 07:44:07;;;;;;;19.23;16.53;;;;;;;2.31;77.66;96284.88;5032003;28;20201;-82
2022/01/16 07:46:34;;;;;;;19.03;15.07;;;;;;;2.38;76.58;96291.94;5031560;28;20202;-83
2022/01/16 07:49:00;;;;;;;19.37;16.07;;;;;;;2.51;76.36;96306.31;5014608;28;20199;-81
2022/01/16 07:51:26;;;;;;;19.00;16.00;;;;;;;2.61;75.85;96309.81;5031555;28;20229;-82
2022/01/16 07:53:53;;;;;;;17.77;15.00;;;;;;;2.70;74.74;96311.69;5032154;28;20592;-81
2022/01/16 07:56:21;;;;;;;17.80;14.10;;;;;;;2.89;87.06;96317.06;5034563;28;20213;-82
2022/01/16 07:58:49;;;;;;;14.47;11.97;;;;;;;3.70;94.13;96319.50;5021640;28;20221;-83
2022/01/16 08:01:15;;;;;;;17.30;12.37;;;;;;;4.52;83.25;96322.50;5031873;28;20230;-82
2022/01/16 08:03:42;;;;;;;15.13;13.47;;;;;;;5.10;75.58;96328.84;5032379;28;20654;-82
2022/01/16 08:06:10;;;;;;;13.63;12.23;;;;;;;5.23;68.05;96321.00;5035876;28;20198;-84
2022/01/16 08:08:37;;;;;;;14.43;12.90;;;;;;;5.06;66.88;96319.81;5036053;28;20225;-83
2022/01/16 08:11:03;;;;;;;15.33;13.07;;;;;;;4.82;67.07;96330.25;5035424;28;20230;-82
2022/01/16 08:13:31;;;;;;;14.67;12.90;;;;;;;4.67;66.94;96323.81;5035991;28;20206;-82
2022/01/16 08:15:58;;;;;;;14.80;12.90;;;;;;;4.56;67.38;96328.97;5027687;28;20218;-83
2022/01/16 08:18:24;;;;;;;15.43;13.60;;;;;;;4.48;67.91;96319.38;5034881;28;20229;-80
2022/01/16 08:20:50;;;;;;;14.37;12.87;;;;;;;4.44;67.23;96317.19;5034911;28;20308;-82
2022/01/16 08:23:17;;;;;;;15.50;13.90;;;;;;;4.46;67.62;96308.47;5034100;28;20727;-82
2022/01/16 08:25:44;;;;;;;15.47;13.17;;;;;;;4.49;67.35;96310.78;5034820;28;20711;-83
2022/01/16 08:28:10;;;;;;;15.77;13.63;;;;;;;4.54;67.11;96309.63;5033825;28;20225;-84
2022/01/16 08:30:38;;;;;;;14.77;12.80;;;;;;;4.62;66.94;96315.72;5032628;28;20221;-82
2022/01/16 08:33:04;;;;;;;17.53;13.90;;;;;;;4.73;66.55;96309.78;5035108;28;20201;-82
2022/01/16 08:35:31;;;;;;;14.90;13.20;;;;;;;4.85;65.87;96307.06;5034756;28;20222;-83
2022/01/16 08:37:57;;;;;;;15.43;13.37;;;;;;;4.92;65.17;96304.81;5035729;28;20225;-83
2022/01/16 08:40:24;;;;;;;15.90;13.67;;;;;;;5.02;64.41;96315.91;5034311;28;20222;-83
2022/01/16 08:42:50;;;;;;;14.80;13.30;;;;;;;5.15;64.15;96298.66;5034380;28;20198;-83
2022/01/16 08:45:17;;;;;;;14.10;12.60;;;;;;;4.98;62.44;96303.53;5034255;28;20202;-83
2022/01/16 08:47:46;;;;;;;15.47;13.13;;;;;;;5.20;64.01;96306.75;5034841;28;20238;-83
2022/01/16 08:50:14;;;;;;;13.60;12.20;;;;;;;5.36;63.22;96302.94;5034627;28;20240;-83
2022/01/16 08:52:41;;;;;;;13.17;11.77;;;;;;;5.53;62.58;96300.63;5033960;28;20213;-83
2022/01/16 08:55:10;;;;;;;15.10;12.60;;;;;;;5.68;62.36;96295.16;5034138;28;20198;-83
2022/01/16 08:57:37;;;;;;;14.37;12.83;;;;;;;5.77;61.87;96290.06;5033481;28;20210;-84
2022/01/16 09:00:05;;;;;;;14.53;12.87;;;;;;;5.84;61.80;96300.59;5032343;28;20229;-84
2022/01/16 09:02:31;;;;;;;13.53;12.10;;;;;;;5.83;61.34;96302.34;5033765;28;20195;-84
2022/01/16 09:04:59;;;;;;;13.00;11.63;;;;;;;5.89;61.18;96304.41;5033141;28;20205;-82
2022/01/16 09:07:25;;;;;;;14.93;12.57;;;;;;;6.01;60.75;96310.22;5034206;28;20229;-82
2022/01/16 09:09:52;;;;;;;13.77;11.57;;;;;;;6.04;60.04;96309.16;5033816;28;20230;-82
2022/01/16 09:12:18;;;;;;;13.80;12.27;;;;;;;6.11;59.32;96315.38;5034321;28;20598;-81
2022/01/16 09:14:45;;;;;;;13.20;11.80;;;;;;;6.20;60.35;96317.13;5033413;28;20249;-83
2022/01/16 09:17:11;;;;;;;13.53;11.93;;;;;;;6.31;59.68;96313.66;5034325;28;20225;-83
2022/01/16 09:19:44;;;;;;;14.07;12.57;;;;;;;6.40;59.46;96313.66;5034581;28;20230;-84
2022/01/16 09:22:11;;;;;;;13.50;12.10;;;;;;;6.50;59.27;96309.38;5033618;28;20210;-83
2022/01/16 09:24:38;;;;;;;13.37;11.83;;;;;;;6.48;59.35;96324.06;5033826;28;20639;-82
2022/01/16 09:27:05;;;;;;;15.37;12.50;;;;;;;6.63;59.04;96311.66;5033715;28;20218;-82
2022/01/16 09:29:32;;;;;;;14.67;13.07;;;;;;;6.69;57.93;96315.44;5034041;28;20291;-82
2022/01/16 09:32:00;;;;;;;15.00;13.03;;;;;;;6.69;57.98;96318.00;5032595;28;20865;-84
2022/01/16 09:34:27;;;;;;;16.60;10.50;;;;;;;7.06;68.40;96329.19;5034088;28;20202;-80
2022/01/16 09:36:56;;;;;;;14.50;12.40;;;;;;;7.39;58.01;96316.84;5032888;28;20232;-82
2022/01/16 09:39:24;;;;;;;13.97;12.47;;;;;;;7.43;56.88;96324.13;5032905;28;20221;-83
2022/01/16 09:41:52;;;;;;;13.90;12.03;;;;;;;7.50;56.23;96316.69;5033764;28;20700;-82
2022/01/16 09:44:19;;;;;;;13.10;11.70;;;;;;;7.45;55.81;96318.88;5033853;28;20224;-83
2022/01/16 09:46:45;;;;;;;12.07;10.80;;;;;;;7.39;54.77;96322.78;5033148;28;20217;-83
2022/01/16 09:49:12;;;;;;;14.43;11.43;;;;;;;7.51;55.02;96316.53;5033059;28;20382;-84
2022/01/16 10:04:40;;;;;;;13.23;11.00;;;;;;;7.64;52.42;96306.00;5088765;27;21076;-83
2022/01/16 10:07:08;;;;;;;11.87;10.67;;;;;;;7.37;52.59;96313.59;5089011;28;20192;-82
2022/01/16 10:09:36;;;;;;;10.57;9.47;;;;;;;7.10;52.63;96316.91;5080151;27;20600;-81
2022/01/16 10:12:13;;;;;;;11.07;9.97;;;;;;;7.17;52.51;96315.41;5049700;28;20212;-85
2022/01/16 10:14:46;;;;;;;11.63;10.43;;;;;;;7.24;52.79;96319.84;5049382;28;20232;-84
2022/01/16 10:17:15;;;;;;;10.83;9.73;;;;;;;7.20;53.09;96326.19;5046787;28;20677;-82
2022/01/16 10:19:43;;;;;;;10.67;9.57;;;;;;;7.21;53.43;96316.75;5046875;28;20240;-83
2022/01/16 10:22:12;;;;;;;11.83;10.20;;;;;;;7.31;52.95;96317.56;5047131;28;20202;-85
2022/01/16 10:24:40;;;;;;;11.63;10.10;;;;;;;7.26;53.05;96312.84;5047647;28;20201;-83
2022/01/16 10:27:19;;;;;;;19.03;15.90;;;;;;;7.11;52.87;96309.09;5047259;28;20206;-81
2022/01/16 10:29:48;;;;;;;13.00;10.23;;;;;;;7.11;53.51;96306.53;5046595;28;20283;-84
2022/01/16 10:32:16;;;;;;;11.17;9.97;;;;;;;7.18;53.74;96305.03;5046283;28;20628;-85
2022/01/16 10:34:45;;;;;;;10.93;9.70;;;;;;;7.31;53.98;96309.06;5047224;28;20198;-85
2022/01/16 10:37:24;;;;;;;11.97;10.10;;;;;;;7.32;54.45;96305.53;5038477;28;20197;-84
2022/01/16 10:39:59;;;;;;;12.13;10.17;;;;;;;7.25;54.05;96311.22;5046761;28;20233;-84
2022/01/16 10:42:27;;;;;;;12.47;10.27;;;;;;;7.39;53.45;96304.84;5046687;28;20201;-83
2022/01/16 10:45:00;;;;;;;12.10;10.40;;;;;;;7.32;54.04;96305.53;5047437;28;20205;-85
2022/01/16 10:47:30;;;;;;;11.07;9.83;;;;;;;7.46;54.00;96294.84;5051509;28;20193;-84
2022/01/16 10:50:10;;;;;;;11.60;10.40;;;;;;;7.23;54.63;96304.63;5051883;28;20232;-84
2022/01/16 10:52:52;;;;;;;13.00;9.77;;;;;;;7.16;54.72;96298.41;5047352;28;20858;-82
2022/01/16 10:55:20;;;;;;;11.17;9.97;;;;;;;7.19;55.55;96300.72;5047151;28;20665;-84
2022/01/16 10:57:47;;;;;;;11.13;9.93;;;;;;;7.32;55.25;96308.91;5046564;28;20208;-84
2022/01/16 11:00:17;;;;;;;12.83;10.23;;;;;;;7.32;55.49;96305.53;5046196;28;20237;-84
2022/01/16 11:02:47;;;;;;;11.30;10.10;;;;;;;7.20;55.97;96312.56;5045306;28;20212;-81
2022/01/16 11:05:17;;;;;;;10.33;9.23;;;;;;;7.41;55.85;96314.97;5032435;28;20213;-84
2022/01/16 11:07:44;;;;;;;10.17;9.13;;;;;;;7.59;55.70;96311.53;5032737;28;20197;-83
2022/01/16 11:10:21;;;;;;;11.20;10.00;;;;;;;7.68;55.30;96309.09;5030186;28;20237;-82
2022/01/16 11:12:49;;;;;;;12.57;9.23;;;;;;;7.62;55.71;96313.00;5030952;28;20271;-81
2022/01/16 11:15:15;;;;;;;10.63;9.53;;;;;;;7.73;55.64;96315.38;5033443;28;20248;-82
2022/01/16 11:17:42;;;;;;;10.40;9.40;;;;;;;7.78;55.81;96312.41;5034126;28;20236;-84
2022/01/16 11:20:11;;;;;;;10.57;9.03;;;;;;;7.76;55.32;96315.09;5033975;28;20242;-83
2022/01/16 11:22:57;;;;;;;10.83;9.73;;;;;;;7.76;54.87;96319.44;5037092;28;20692;-86
2022/01/16 11:25:31;;;;;;;10.53;9.33;;;;;;;7.83;55.20;96318.72;5054386;28;20681;-85
2022/01/16 11:28:00;;;;;;;21.30;16.93;;;;;;;7.71;55.81;96321.59;5054636;28;20206;-83
2022/01/16 11:30:26;;;;;;;12.90;10.57;;;;;;;7.75;55.39;96320.38;5035124;28;20250;-85
2022/01/16 11:32:53;;;;;;;10.63;9.53;;;;;;;7.60;55.98;96336.22;5034529;28;20218;-84
2022/01/16 11:35:20;;;;;;;12.00;9.90;;;;;;;7.48;56.26;96308.34;5033828;28;20210;-83
2022/01/16 11:37:49;;;;;;;10.37;9.30;;;;;;;7.62;56.09;96318.94;5033384;28;20685;-82
2022/01/16 11:40:27;;;;;;;10.40;9.30;;;;;;;7.81;56.01;96330.06;5033232;28;20226;-85
2022/01/16 11:43:16;;;;;;;11.30;9.50;;;;;;;7.84;55.11;96320.34;5018648;28;20186;-84
2022/01/16 11:45:48;;;;;;;13.67;12.07;;;;;;;7.98;54.65;96319.88;5033315;28;20209;-84
2022/01/16 11:48:19;;;;;;;10.27;9.17;;;;;;;7.76;54.84;96322.00;5033166;28;20214;-82
2022/01/16 11:50:46;;;;;;;11.93;9.10;;;;;;;7.69;55.08;96326.09;5020479;28;20744;-82
2022/01/16 11:53:53;;;;;;;10.20;9.10;;;;;;;7.83;54.92;96313.59;5033128;28;20581;-83
2022/01/16 11:56:56;;;;;;;10.30;9.20;;;;;;;8.01;54.77;96312.84;5022823;28;20647;-83
2022/01/16 11:59:26;;;;;;;12.23;9.90;;;;;;;7.95;54.17;96319.34;5032907;28;20225;-80
2022/01/16 12:01:54;;;;;;;11.07;9.20;;;;;;;7.97;54.30;96325.94;5033609;28;20282;-84
2022/01/16 12:04:56;;;;;;;11.17;9.50;;;;;;;7.97;54.27;96327.72;5033679;28;20198;-85
2022/01/16 12:07:47;;;;;;;12.03;9.57;;;;;;;7.81;54.58;96336.00;5033916;28;20197;-81
2022/01/16 12:10:50;;;;;;;16.00;11.23;;;;;;;7.93;54.54;96340.00;5035884;28;20226;-84
2022/01/16 12:15:45;;;;;;;10.50;9.03;;;;;;;8.06;54.44;96333.75;5009235;28;20640;-82
2022/01/16 12:18:33;;;;;;;13.13;10.27;;;;;;;8.16;54.49;96335.31;5010638;28;20953;-83
2022/01/16 12:20:59;;;;;;;10.60;9.03;;;;;;;8.16;54.68;96342.19;5015207;28;20241;-82
2022/01/16 12:23:30;;;;;;;10.73;9.20;;;;;;;8.24;54.52;96340.53;5017814;28;20195;-82
2022/01/16 12:25:58;;;;;;;10.60;9.13;;;;;;;8.19;54.71;96337.59;5014832;28;20297;-82